Time;durP1;ratioP1;P1;durP2;ratioP2;P2;SDS_P1;SDS_P2;PMS_P1;PMS_P2;Temp;Humidity;BMP_temperature;BMP_pressure;BME280_temperature;BME280_humidity;BME280_pressure;Samples;Min_cycle;Max_cycle;Signal;HPM_P1;HPM_P2
2023/12/22 00:00:15;;;;;;;22.85;4.32;;;;;;;;;;5039313;28;20048;-63
2023/12/22 00:02:41;;;;;;;13.52;3.70;;;;;;;;;;5041513;28;20159;-62
2023/12/22 00:05:07;;;;;;;16.92;4.65;;;;;;;;;;5035569;28;20132;-63
2023/12/22 00:07:33;;;;;;;14.30;3.72;;;;;;;;;;5033990;28;20055;-63
2023/12/22 00:09:59;;;;;;;13.90;3.63;;;;;;;;;;5033705;28;20497;-62
2023/12/22 00:12:25;;;;;;;14.90;3.45;;;;;;;;;;5032018;28;20046;-64
2023/12/22 00:14:51;;;;;;;16.77;3.83;;;;;;;;;;5036748;28;20037;-64
2023/12/22 00:17:17;;;;;;;17.35;3.83;;;;;;;;;;5038963;28;20063;-64
2023/12/22 00:19:43;;;;;;;26.77;4.68;;;;;;;;;;5035768;28;20051;-63
2023/12/22 00:22:09;;;;;;;20.27;3.95;;;;;;;;;;5037134;28;20412;-63
2023/12/22 00:24:35;;;;;;;19.50;5.20;;;;;;;;;;5036590;28;20646;-63
2023/12/22 00:27:01;;;;;;;15.43;3.33;;;;;;;;;;5039097;28;20045;-63
2023/12/22 00:29:28;;;;;;;16.95;4.05;;;;;;;;;;5035365;28;20064;-63
2023/12/22 00:31:55;;;;;;;17.77;3.72;;;;;;;;;;5037404;28;20157;-63
2023/12/22 00:34:22;;;;;;;10.25;3.42;;;;;;;;;;5037441;28;20401;-63
2023/12/22 00:36:48;;;;;;;25.17;5.03;;;;;;;;;;5037768;28;20128;-63
2023/12/22 00:39:14;;;;;;;15.00;3.25;;;;;;;;;;5033498;28;20116;-63
2023/12/22 00:41:40;;;;;;;17.20;3.72;;;;;;;;;;5036953;28;20048;-63
2023/12/22 00:44:06;;;;;;;6.68;2.22;;;;;;;;;;5036989;28;20037;-63
2023/12/22 00:46:32;;;;;;;6.63;1.38;;;;;;;;;;5040302;28;20079;-63
2023/12/22 00:48:58;;;;;;;9.35;1.83;;;;;;;;;;5036621;28;20073;-63
2023/12/22 00:51:24;;;;;;;12.13;2.15;;;;;;;;;;5037422;28;20094;-63
2023/12/22 00:53:50;;;;;;;9.30;2.15;;;;;;;;;;5033637;28;20041;-63
2023/12/22 00:56:16;;;;;;;13.02;2.25;;;;;;;;;;5037992;28;20505;-63
2023/12/22 00:58:42;;;;;;;12.77;2.60;;;;;;;;;;5037280;28;20043;-63
2023/12/22 01:01:08;;;;;;;9.00;2.08;;;;;;;;;;5034088;28;20455;-63
2023/12/22 01:03:34;;;;;;;6.65;2.08;;;;;;;;;;5038286;28;20064;-63
2023/12/22 01:06:00;;;;;;;13.15;2.60;;;;;;;;;;5040104;28;20040;-63
2023/12/22 01:08:26;;;;;;;15.43;3.38;;;;;;;;;;5039854;28;20413;-63
2023/12/22 01:10:52;;;;;;;19.70;3.70;;;;;;;;;;5035950;28;20084;-63
2023/12/22 01:13:18;;;;;;;12.38;3.03;;;;;;;;;;5038643;28;20099;-63
2023/12/22 01:15:44;;;;;;;10.50;3.38;;;;;;;;;;5038149;28;20044;-62
2023/12/22 01:18:11;;;;;;;15.30;2.83;;;;;;;;;;5031638;28;20128;-62
2023/12/22 01:20:37;;;;;;;18.08;3.72;;;;;;;;;;5038444;28;20402;-62
2023/12/22 01:23:03;;;;;;;19.27;4.72;;;;;;;;;;5040440;28;20102;-62
2023/12/22 01:25:29;;;;;;;14.23;2.75;;;;;;;;;;5034737;28;20033;-62
2023/12/22 01:27:55;;;;;;;14.68;3.25;;;;;;;;;;5035731;28;20544;-62
2023/12/22 01:30:21;;;;;;;15.20;3.50;;;;;;;;;;5038573;28;20145;-62
2023/12/22 01:32:47;;;;;;;27.67;7.03;;;;;;;;;;5039922;28;20107;-63
2023/12/22 01:35:14;;;;;;;18.77;4.70;;;;;;;;;;5040377;28;20068;-63
2023/12/22 01:37:40;;;;;;;21.30;4.78;;;;;;;;;;5037263;28;20049;-63
2023/12/22 01:40:06;;;;;;;16.42;3.60;;;;;;;;;;5042274;28;20111;-63
2023/12/22 01:42:32;;;;;;;16.13;3.90;;;;;;;;;;5035825;28;20126;-63
2023/12/22 01:44:58;;;;;;;13.45;2.92;;;;;;;;;;5038620;28;20114;-63
2023/12/22 01:47:25;;;;;;;15.27;2.90;;;;;;;;;;5039966;28;20048;-63
2023/12/22 01:49:51;;;;;;;16.25;4.28;;;;;;;;;;5036218;28;20519;-63
2023/12/22 01:52:18;;;;;;;12.00;3.47;;;;;;;;;;5037310;28;20041;-63
2023/12/22 01:54:44;;;;;;;19.40;4.35;;;;;;;;;;5038654;28;20045;-63
2023/12/22 01:57:13;;;;;;;26.00;6.05;;;;;;;;;;5037906;28;20108;-63
2023/12/22 01:59:39;;;;;;;17.48;3.78;;;;;;;;;;5036893;28;20099;-63
2023/12/22 02:02:05;;;;;;;19.40;3.70;;;;;;;;;;5039288;28;20048;-63
2023/12/22 02:04:31;;;;;;;18.23;4.28;;;;;;;;;;5039466;28;20664;-63
2023/12/22 02:06:59;;;;;;;19.05;4.28;;;;;;;;;;5039264;28;20045;-63
2023/12/22 02:09:25;;;;;;;17.88;4.15;;;;;;;;;;5038627;28;20036;-63
2023/12/22 02:11:51;;;;;;;22.38;4.65;;;;;;;;;;5035595;28;20081;-63
2023/12/22 02:14:17;;;;;;;18.23;4.28;;;;;;;;;;5038175;28;20045;-63
2023/12/22 02:16:46;;;;;;;17.42;4.60;;;;;;;;;;5041277;28;20044;-63
2023/12/22 02:19:32;;;;;;;17.90;4.15;;;;;;;;;;5035141;28;20041;-63
2023/12/22 02:22:02;;;;;;;12.30;2.67;;;;;;;;;;5038183;28;20550;-63
2023/12/22 02:24:30;;;;;;;14.10;2.97;;;;;;;;;;5038781;28;20044;-63
2023/12/22 02:26:59;;;;;;;9.40;2.67;;;;;;;;;;5040001;28;20049;-63
2023/12/22 02:29:26;;;;;;;14.80;2.85;;;;;;;;;;5036146;28;20579;-63
2023/12/22 02:31:53;;;;;;;13.27;2.58;;;;;;;;;;5038951;28;20063;-63
2023/12/22 02:34:20;;;;;;;15.15;3.38;;;;;;;;;;5038740;28;20051;-63
2023/12/22 02:36:47;;;;;;;21.35;3.28;;;;;;;;;;5037267;28;20044;-63
2023/12/22 02:39:14;;;;;;;13.32;3.42;;;;;;;;;;5033703;28;20045;-63
2023/12/22 02:41:41;;;;;;;15.38;3.67;;;;;;;;;;5036284;28;20043;-63
2023/12/22 02:44:07;;;;;;;19.58;3.85;;;;;;;;;;5040893;28;20040;-63
2023/12/22 02:46:33;;;;;;;14.60;3.90;;;;;;;;;;5069778;28;20395;-63
2023/12/22 02:48:59;;;;;;;16.17;3.55;;;;;;;;;;5035808;28;20080;-63
2023/12/22 02:51:25;;;;;;;11.77;2.67;;;;;;;;;;5037488;28;20159;-62
2023/12/22 02:53:51;;;;;;;8.60;2.35;;;;;;;;;;5038717;28;20041;-62
2023/12/22 02:56:17;;;;;;;12.40;2.83;;;;;;;;;;5039763;28;20040;-62
2023/12/22 02:58:43;;;;;;;18.40;3.88;;;;;;;;;;5040237;28;20129;-62
2023/12/22 03:01:09;;;;;;;13.95;2.88;;;;;;;;;;5033865;28;20029;-65
2023/12/22 03:03:35;;;;;;;6.97;1.85;;;;;;;;;;5037437;28;20531;-66
2023/12/22 03:06:01;;;;;;;7.03;1.48;;;;;;;;;;5037369;28;20048;-66
2023/12/22 03:08:27;;;;;;;7.70;0.93;;;;;;;;;;5041801;28;20131;-66
2023/12/22 03:10:53;;;;;;;4.35;0.88;;;;;;;;;;5033821;28;20444;-66
2023/12/22 03:13:19;;;;;;;3.78;1.08;;;;;;;;;;5036363;28;20052;-66
2023/12/22 03:15:45;;;;;;;6.03;1.23;;;;;;;;;;5036407;28;20050;-66
2023/12/22 03:18:10;;;;;;;7.68;2.10;;;;;;;;;;5036968;28;20044;-66
2023/12/22 03:20:38;;;;;;;6.63;1.85;;;;;;;;;;5038610;28;20045;-66
2023/12/22 03:23:04;;;;;;;8.48;1.65;;;;;;;;;;5073357;28;20042;-66
2023/12/22 03:25:30;;;;;;;8.07;1.75;;;;;;;;;;5038262;28;20106;-66
2023/12/22 03:27:56;;;;;;;10.73;1.98;;;;;;;;;;5036792;28;20047;-66
2023/12/22 03:30:22;;;;;;;12.07;2.08;;;;;;;;;;5040733;28;20047;-66
2023/12/22 03:32:48;;;;;;;15.95;3.20;;;;;;;;;;5043678;28;20059;-66
2023/12/22 03:35:14;;;;;;;14.05;2.67;;;;;;;;;;5038965;28;20071;-66
2023/12/22 03:37:40;;;;;;;8.68;1.90;;;;;;;;;;5034709;28;20064;-66
2023/12/22 03:40:06;;;;;;;6.53;1.52;;;;;;;;;;5034808;28;20163;-66
2023/12/22 03:42:32;;;;;;;5.28;1.23;;;;;;;;;;5032038;28;20081;-66
2023/12/22 03:44:58;;;;;;;7.00;1.67;;;;;;;;;;5034933;28;20041;-66
2023/12/22 03:47:24;;;;;;;5.90;1.05;;;;;;;;;;5032751;28;20393;-66
2023/12/22 03:49:50;;;;;;;8.63;1.73;;;;;;;;;;5037688;28;20140;-66
2023/12/22 03:52:16;;;;;;;9.02;1.77;;;;;;;;;;5038159;28;20052;-66
2023/12/22 03:54:42;;;;;;;8.70;1.80;;;;;;;;;;5035423;28;20048;-66
2023/12/22 03:57:08;;;;;;;13.63;2.58;;;;;;;;;;5033434;28;20129;-66
2023/12/22 03:59:34;;;;;;;6.10;2.08;;;;;;;;;;5035822;28;20406;-65
2023/12/22 04:02:01;;;;;;;9.40;2.20;;;;;;;;;;5037457;28;20037;-66
2023/12/22 04:04:28;;;;;;;7.55;1.58;;;;;;;;;;5035280;28;20051;-66
2023/12/22 04:06:54;;;;;;;12.73;3.33;;;;;;;;;;5034680;28;20044;-66
2023/12/22 04:09:20;;;;;;;10.95;2.25;;;;;;;;;;5036924;28;20482;-66
2023/12/22 04:11:47;;;;;;;23.13;4.13;;;;;;;;;;5039141;28;20111;-66
2023/12/22 04:14:13;;;;;;;23.55;3.72;;;;;;;;;;5038538;28;20055;-66
2023/12/22 04:16:38;;;;;;;25.70;5.72;;;;;;;;;;5037093;28;20037;-66
2023/12/22 04:19:05;;;;;;;17.20;4.05;;;;;;;;;;5035167;28;20059;-66
2023/12/22 04:21:30;;;;;;;23.13;5.80;;;;;;;;;;5034096;28;20080;-66
2023/12/22 04:23:56;;;;;;;22.80;4.10;;;;;;;;;;5037568;28;20076;-66
2023/12/22 04:26:22;;;;;;;20.30;4.13;;;;;;;;;;5034266;28;20520;-66
2023/12/22 04:28:48;;;;;;;24.63;4.38;;;;;;;;;;5036594;28;20033;-66
2023/12/22 04:31:14;;;;;;;26.25;4.78;;;;;;;;;;5035234;28;20133;-66
2023/12/22 04:33:40;;;;;;;12.80;2.97;;;;;;;;;;5039360;28;20037;-66
2023/12/22 04:36:06;;;;;;;15.82;2.85;;;;;;;;;;5032686;28;20042;-66
2023/12/22 04:38:32;;;;;;;17.10;3.50;;;;;;;;;;5031093;28;20041;-66
2023/12/22 04:40:58;;;;;;;18.33;4.30;;;;;;;;;;5035225;28;20041;-66
2023/12/22 04:43:24;;;;;;;17.50;3.72;;;;;;;;;;5035483;28;20045;-66
2023/12/22 04:45:50;;;;;;;21.63;4.47;;;;;;;;;;5032193;28;20127;-65
2023/12/22 04:48:16;;;;;;;28.45;5.18;;;;;;;;;;5033463;28;20519;-65
2023/12/22 04:50:42;;;;;;;17.85;3.30;;;;;;;;;;5029263;28;20092;-65
2023/12/22 04:53:08;;;;;;;21.63;4.93;;;;;;;;;;5031116;28;20634;-65
2023/12/22 04:55:34;;;;;;;14.50;3.47;;;;;;;;;;5039039;28;20083;-65
2023/12/22 04:58:00;;;;;;;14.55;3.38;;;;;;;;;;5037164;28;20053;-65
2023/12/22 05:00:26;;;;;;;18.08;4.32;;;;;;;;;;5038089;28;20045;-65
2023/12/22 05:02:52;;;;;;;18.42;3.60;;;;;;;;;;5039792;28;20097;-65
2023/12/22 05:05:18;;;;;;;13.30;2.83;;;;;;;;;;5034902;28;20077;-65
2023/12/22 05:07:44;;;;;;;17.20;3.50;;;;;;;;;;5040040;28;20512;-65
2023/12/22 05:10:10;;;;;;;16.20;3.95;;;;;;;;;;5036229;28;20048;-65
2023/12/22 05:12:36;;;;;;;12.68;2.63;;;;;;;;;;5042983;28;20041;-65
2023/12/22 05:15:02;;;;;;;20.65;3.65;;;;;;;;;;5040202;28;20033;-65
2023/12/22 05:17:28;;;;;;;18.10;4.30;;;;;;;;;;5036529;28;20143;-65
2023/12/22 05:19:54;;;;;;;19.67;3.95;;;;;;;;;;5029501;28;20119;-65
2023/12/22 05:22:20;;;;;;;28.75;4.70;;;;;;;;;;5037217;28;20783;-65
2023/12/22 05:24:46;;;;;;;13.75;2.70;;;;;;;;;;5042252;28;20041;-65
2023/12/22 05:27:12;;;;;;;20.02;3.88;;;;;;;;;;5039851;28;20043;-65
2023/12/22 05:29:38;;;;;;;10.80;3.08;;;;;;;;;;5040740;28;20489;-65
2023/12/22 05:32:05;;;;;;;18.08;3.78;;;;;;;;;;5039871;28;20077;-65
2023/12/22 05:34:31;;;;;;;12.57;2.85;;;;;;;;;;5035144;28;20068;-65
2023/12/22 05:36:57;;;;;;;15.93;3.53;;;;;;;;;;5037147;28;20065;-65
2023/12/22 05:39:23;;;;;;;16.38;3.17;;;;;;;;;;5034849;28;20037;-65
2023/12/22 05:41:49;;;;;;;25.20;4.95;;;;;;;;;;5040360;28;20468;-65
2023/12/22 05:44:15;;;;;;;15.68;3.75;;;;;;;;;;5038974;28;20073;-65
2023/12/22 05:46:41;;;;;;;20.10;4.00;;;;;;;;;;5035464;28;20112;-65
2023/12/22 05:49:07;;;;;;;14.55;4.13;;;;;;;;;;5031863;28;20552;-65
2023/12/22 05:51:39;;;;;;;12.63;3.72;;;;;;;;;;5035233;28;20072;-65
2023/12/22 05:54:06;;;;;;;13.35;3.03;;;;;;;;;;5035083;28;20094;-65
2023/12/22 05:56:32;;;;;;;18.52;3.72;;;;;;;;;;5036481;28;20128;-65
2023/12/22 05:58:58;;;;;;;11.55;2.55;;;;;;;;;;5070106;28;20049;-65
2023/12/22 06:01:24;;;;;;;13.75;3.17;;;;;;;;;;5035753;28;20099;-65
2023/12/22 06:03:50;;;;;;;9.88;2.53;;;;;;;;;;5034667;28;20489;-65
2023/12/22 06:06:16;;;;;;;6.88;1.90;;;;;;;;;;5038678;28;20041;-65
2023/12/22 06:08:42;;;;;;;19.08;3.78;;;;;;;;;;5039163;28;20148;-65
2023/12/22 06:11:08;;;;;;;10.43;1.90;;;;;;;;;;5045029;28;20136;-65
2023/12/22 06:13:34;;;;;;;10.77;2.20;;;;;;;;;;5044809;28;20059;-65
2023/12/22 06:16:00;;;;;;;13.00;2.92;;;;;;;;;;5043359;28;20481;-65
2023/12/22 06:18:26;;;;;;;13.65;2.85;;;;;;;;;;5044594;28;20079;-65
2023/12/22 06:20:52;;;;;;;12.32;2.42;;;;;;;;;;5044235;28;20136;-65
2023/12/22 06:23:18;;;;;;;17.35;3.53;;;;;;;;;;5044849;28;20045;-65
2023/12/22 06:25:46;;;;;;;14.10;2.97;;;;;;;;;;5045259;28;20044;-65
2023/12/22 06:28:12;;;;;;;14.43;3.08;;;;;;;;;;5044004;28;20080;-65
2023/12/22 06:30:38;;;;;;;14.05;3.55;;;;;;;;;;5045204;28;20401;-65
2023/12/22 06:33:04;;;;;;;13.82;3.05;;;;;;;;;;5044398;28;20779;-65
2023/12/22 06:35:31;;;;;;;11.63;3.25;;;;;;;;;;5043864;28;20037;-65
2023/12/22 06:38:01;;;;;;;8.82;3.63;;;;;;;;;;5045243;28;20044;-65
2023/12/22 06:40:27;;;;;;;5.35;1.95;;;;;;;;;;5044519;28;20051;-65
2023/12/22 06:42:53;;;;;;;10.23;2.13;;;;;;;;;;5044134;28;20036;-65
2023/12/22 06:45:19;;;;;;;17.52;3.35;;;;;;;;;;5043214;28;20059;-65
2023/12/22 06:47:45;;;;;;;12.05;3.70;;;;;;;;;;5044337;28;20400;-65
2023/12/22 06:50:11;;;;;;;11.68;2.58;;;;;;;;;;5008372;28;1046328;-65
2023/12/22 06:52:37;;;;;;;10.63;2.90;;;;;;;;;;5046273;28;20060;-65
2023/12/22 06:55:03;;;;;;;10.50;2.33;;;;;;;;;;5045103;28;20041;-65
2023/12/22 06:57:29;;;;;;;10.07;1.75;;;;;;;;;;5045249;28;20045;-65
2023/12/22 06:59:55;;;;;;;6.55;1.77;;;;;;;;;;5044612;28;20404;-65
2023/12/22 07:02:21;;;;;;;7.90;2.08;;;;;;;;;;5043763;28;20049;-65
2023/12/22 07:05:06;;;;;;;6.60;1.88;;;;;;;;;;5045208;28;20700;-65
2023/12/22 07:07:31;;;;;;;6.15;2.00;;;;;;;;;;5043618;28;20119;-65
2023/12/22 07:09:57;;;;;;;5.97;2.13;;;;;;;;;;5042354;28;20178;-65
2023/12/22 07:12:23;;;;;;;8.38;2.13;;;;;;;;;;5044018;28;20045;-65
2023/12/22 07:14:49;;;;;;;10.80;2.72;;;;;;;;;;5044060;28;20636;-65
2023/12/22 07:17:15;;;;;;;10.70;2.35;;;;;;;;;;5044387;28;20106;-65
2023/12/22 07:19:42;;;;;;;10.55;2.78;;;;;;;;;;5045448;28;20044;-65
2023/12/22 07:22:08;;;;;;;8.10;1.83;;;;;;;;;;5045806;28;20052;-65
2023/12/22 07:24:34;;;;;;;11.27;1.75;;;;;;;;;;5044515;28;20041;-66
2023/12/22 07:27:00;;;;;;;8.45;2.13;;;;;;;;;;5042171;28;20057;-65
2023/12/22 07:29:26;;;;;;;9.25;2.65;;;;;;;;;;5044960;28;20041;-65
2023/12/22 07:31:55;;;;;;;8.43;2.38;;;;;;;;;;5042778;28;20041;-65
2023/12/22 07:34:22;;;;;;;5.78;1.88;;;;;;;;;;5044841;28;20740;-65
2023/12/22 07:36:48;;;;;;;8.13;1.95;;;;;;;;;;5041571;28;20043;-65
2023/12/22 07:39:15;;;;;;;6.90;1.73;;;;;;;;;;5043564;28;20120;-65
2023/12/22 07:41:41;;;;;;;9.02;1.73;;;;;;;;;;5044982;28;20048;-65
2023/12/22 07:44:07;;;;;;;5.10;1.80;;;;;;;;;;5043595;28;20080;-65
2023/12/22 07:46:33;;;;;;;8.95;1.92;;;;;;;;;;5044102;28;20048;-65
2023/12/22 07:48:59;;;;;;;15.52;3.58;;;;;;;;;;5045085;28;20404;-65
2023/12/22 07:51:25;;;;;;;10.15;2.08;;;;;;;;;;5042588;28;20053;-65
2023/12/22 07:53:51;;;;;;;9.68;2.55;;;;;;;;;;5044198;28;20052;-65
2023/12/22 07:56:17;;;;;;;10.32;2.05;;;;;;;;;;5040719;28;20044;-65
2023/12/22 07:58:43;;;;;;;5.18;1.98;;;;;;;;;;5041811;28;20128;-65
2023/12/22 08:01:09;;;;;;;6.57;1.73;;;;;;;;;;5044688;28;20063;-65
2023/12/22 08:03:35;;;;;;;3.88;1.35;;;;;;;;;;5043367;28;20721;-65
2023/12/22 08:06:01;;;;;;;11.15;2.22;;;;;;;;;;5040935;28;20063;-65
2023/12/22 08:08:27;;;;;;;8.45;1.90;;;;;;;;;;5043732;28;20045;-66
2023/12/22 08:10:53;;;;;;;4.75;1.48;;;;;;;;;;5044803;28;20516;-66
2023/12/22 08:13:19;;;;;;;5.43;1.92;;;;;;;;;;5043603;28;20044;-65
2023/12/22 08:15:45;;;;;;;6.50;1.33;;;;;;;;;;5041887;28;20155;-65
2023/12/22 08:18:11;;;;;;;3.97;1.17;;;;;;;;;;5042485;28;20140;-65
2023/12/22 08:20:37;;;;;;;5.05;1.35;;;;;;;;;;5043793;28;20167;-65
2023/12/22 08:23:03;;;;;;;5.50;1.98;;;;;;;;;;5044539;28;20040;-65
2023/12/22 08:25:30;;;;;;;10.95;2.05;;;;;;;;;;5041716;28;20049;-65
2023/12/22 08:27:56;;;;;;;10.32;2.10;;;;;;;;;;5041613;28;20045;-66
2023/12/22 08:30:22;;;;;;;3.78;1.10;;;;;;;;;;5044105;28;20044;-65
2023/12/22 08:32:48;;;;;;;7.63;1.83;;;;;;;;;;5043015;28;20040;-65
2023/12/22 08:35:14;;;;;;;5.15;1.48;;;;;;;;;;5042361;28;20040;-65
2023/12/22 08:37:40;;;;;;;7.82;1.88;;;;;;;;;;5044407;28;20043;-65
2023/12/22 08:40:07;;;;;;;7.85;2.08;;;;;;;;;;5044357;28;20040;-65
2023/12/22 08:42:33;;;;;;;17.73;3.33;;;;;;;;;;5040946;28;20072;-65
2023/12/22 08:44:59;;;;;;;9.80;2.05;;;;;;;;;;5042787;28;20500;-65
2023/12/22 08:47:25;;;;;;;9.82;2.45;;;;;;;;;;5043463;28;20041;-65
2023/12/22 08:49:51;;;;;;;8.05;1.85;;;;;;;;;;5044019;28;20932;-65
2023/12/22 08:52:17;;;;;;;6.60;1.52;;;;;;;;;;5042130;28;20049;-65
2023/12/22 08:54:43;;;;;;;6.43;1.67;;;;;;;;;;5043352;28;20033;-65
2023/12/22 08:57:09;;;;;;;6.00;1.65;;;;;;;;;;5042555;28;20041;-65
2023/12/22 08:59:35;;;;;;;4.45;1.92;;;;;;;;;;5043034;28;20052;-65
2023/12/22 09:02:01;;;;;;;5.85;1.80;;;;;;;;;;5041368;28;20576;-65
2023/12/22 09:04:27;;;;;;;4.55;1.40;;;;;;;;;;5042938;28;20040;-65
2023/12/22 09:06:53;;;;;;;5.28;1.38;;;;;;;;;;5041437;28;20040;-65
2023/12/22 09:09:21;;;;;;;1.58;0.93;;;;;;;;;;5044015;28;20080;-64
2023/12/22 09:11:47;;;;;;;4.45;0.93;;;;;;;;;;5036992;28;20051;-65
2023/12/22 09:14:13;;;;;;;6.63;1.45;;;;;;;;;;5044467;28;20037;-63
2023/12/22 09:16:39;;;;;;;6.53;1.83;;;;;;;;;;5043703;28;20037;-64
2023/12/22 09:19:07;;;;;;;3.83;0.93;;;;;;;;;;5044941;28;20049;-65
2023/12/22 09:21:33;;;;;;;5.18;1.55;;;;;;;;;;5045539;28;20037;-65
2023/12/22 09:23:59;;;;;;;8.43;1.65;;;;;;;;;;5041703;28;20037;-65
2023/12/22 09:26:25;;;;;;;13.05;2.13;;;;;;;;;;5043546;28;20032;-65
2023/12/22 09:28:51;;;;;;;9.18;2.03;;;;;;;;;;5041993;28;20128;-65
2023/12/22 09:31:17;;;;;;;1.85;1.02;;;;;;;;;;5042593;28;20041;-65
2023/12/22 09:33:43;;;;;;;1.98;0.90;;;;;;;;;;5043548;28;20091;-65
2023/12/22 09:36:10;;;;;;;4.95;1.42;;;;;;;;;;5044121;28;20045;-65
2023/12/22 09:38:36;;;;;;;3.47;0.95;;;;;;;;;;5043863;28;20036;-64
2023/12/22 09:41:02;;;;;;;3.88;1.55;;;;;;;;;;5047775;28;20746;-65
2023/12/22 09:43:29;;;;;;;7.90;1.70;;;;;;;;;;5044249;28;20033;-65
2023/12/22 09:45:55;;;;;;;6.93;1.58;;;;;;;;;;5045716;28;20051;-65
2023/12/22 09:48:27;;;;;;;6.53;1.33;;;;;;;;;;5046291;28;20132;-65
2023/12/22 09:50:54;;;;;;;6.23;0.93;;;;;;;;;;5046880;28;20087;-65
2023/12/22 09:53:20;;;;;;;8.38;1.30;;;;;;;;;;5046419;28;20295;-65
2023/12/22 09:55:46;;;;;;;3.92;1.30;;;;;;;;;;5045821;28;20041;-65
2023/12/22 09:58:13;;;;;;;6.50;0.88;;;;;;;;;;5046991;28;20090;-65
2023/12/22 10:00:39;;;;;;;8.93;1.50;;;;;;;;;;5047345;28;20457;-65
2023/12/22 10:03:07;;;;;;;6.55;1.27;;;;;;;;;;5047785;28;20568;-65
2023/12/22 10:05:33;;;;;;;6.55;1.30;;;;;;;;;;5040467;28;20574;-65
2023/12/22 10:08:00;;;;;;;5.88;1.50;;;;;;;;;;5045256;28;20049;-65
2023/12/22 10:10:29;;;;;;;4.97;1.20;;;;;;;;;;5041704;28;20046;-65
2023/12/22 10:12:55;;;;;;;2.20;0.95;;;;;;;;;;5045159;28;20040;-65
2023/12/22 10:15:23;;;;;;;2.42;1.00;;;;;;;;;;5045320;28;20048;-64
2023/12/22 10:17:50;;;;;;;4.85;1.23;;;;;;;;;;5043724;28;20045;-64
2023/12/22 10:20:16;;;;;;;3.38;1.15;;;;;;;;;;5040714;28;20118;-64
2023/12/22 10:22:42;;;;;;;2.50;0.82;;;;;;;;;;5037786;28;20041;-65
2023/12/22 10:25:09;;;;;;;2.83;0.90;;;;;;;;;;5036840;28;20037;-64
2023/12/22 10:27:36;;;;;;;1.63;0.47;;;;;;;;;;5039845;28;20079;-64
2023/12/22 10:30:03;;;;;;;2.45;0.95;;;;;;;;;;5038611;28;20510;-64
2023/12/22 10:32:29;;;;;;;4.97;0.90;;;;;;;;;;5039691;28;20066;-64
2023/12/22 10:34:57;;;;;;;4.07;1.02;;;;;;;;;;5043195;28;20459;-64
2023/12/22 10:37:23;;;;;;;2.50;0.70;;;;;;;;;;5047150;28;20037;-65
2023/12/22 10:39:56;;;;;;;2.40;0.80;;;;;;;;;;5045863;28;20047;-64
2023/12/22 10:42:22;;;;;;;2.72;0.77;;;;;;;;;;5043610;28;20056;-64
2023/12/22 10:44:49;;;;;;;3.05;0.90;;;;;;;;;;5046918;28;20063;-63
2023/12/22 10:47:15;;;;;;;1.77;0.68;;;;;;;;;;5044556;28;20532;-65
2023/12/22 10:49:41;;;;;;;2.05;0.77;;;;;;;;;;5043858;28;20339;-65
2023/12/22 10:52:10;;;;;;;3.33;0.73;;;;;;;;;;5044298;28;20041;-65
2023/12/22 10:54:36;;;;;;;1.88;0.50;;;;;;;;;;5044718;28;20091;-60
2023/12/22 10:57:03;;;;;;;1.88;0.55;;;;;;;;;;5046039;28;20037;-63
2023/12/22 10:59:30;;;;;;;1.25;0.55;;;;;;;;;;5041377;28;20045;-64
2023/12/22 11:01:57;;;;;;;3.08;0.82;;;;;;;;;;5044917;28;20095;-66
2023/12/22 11:04:26;;;;;;;3.28;0.65;;;;;;;;;;5046860;28;20052;-66
2023/12/22 11:06:55;;;;;;;3.60;1.10;;;;;;;;;;5043945;28;20079;-65
2023/12/22 11:09:22;;;;;;;2.97;0.63;;;;;;;;;;5040866;28;20515;-65
2023/12/22 11:11:49;;;;;;;4.05;0.82;;;;;;;;;;5046520;28;20119;-65
2023/12/22 11:14:15;;;;;;;4.18;1.38;;;;;;;;;;5046052;28;20063;-65
2023/12/22 11:16:47;;;;;;;5.28;1.17;;;;;;;;;;5045673;28;20099;-66
2023/12/22 11:19:14;;;;;;;2.50;0.95;;;;;;;;;;5045487;28;20109;-65
2023/12/22 11:21:40;;;;;;;2.50;0.70;;;;;;;;;;5045365;28;20100;-65
2023/12/22 11:24:07;;;;;;;3.55;0.88;;;;;;;;;;5045058;28;20037;-65
2023/12/22 11:26:33;;;;;;;4.72;1.08;;;;;;;;;;5045610;28;20045;-65
2023/12/22 11:29:00;;;;;;;2.85;0.82;;;;;;;;;;5045479;28;20116;-65
2023/12/22 11:31:27;;;;;;;1.65;0.63;;;;;;;;;;5045274;28;20129;-66
2023/12/22 11:33:55;;;;;;;2.85;0.95;;;;;;;;;;5047345;28;20044;-66
2023/12/22 11:36:21;;;;;;;1.30;0.40;;;;;;;;;;5046856;28;20041;-66
2023/12/22 11:38:47;;;;;;;3.85;0.70;;;;;;;;;;5046279;28;20041;-66
2023/12/22 11:41:16;;;;;;;3.95;1.42;;;;;;;;;;5046470;28;20033;-66
2023/12/22 11:43:43;;;;;;;5.53;0.85;;;;;;;;;;5044530;28;20047;-66
2023/12/22 11:46:09;;;;;;;5.93;1.05;;;;;;;;;;5039162;28;20080;-65
2023/12/22 11:48:35;;;;;;;4.43;0.98;;;;;;;;;;5044054;28;20161;-65
2023/12/22 11:51:02;;;;;;;3.70;1.00;;;;;;;;;;5045241;28;20451;-64
2023/12/22 11:53:33;;;;;;;3.75;1.10;;;;;;;;;;5042784;28;20044;-65
2023/12/22 11:56:08;;;;;;;3.58;1.17;;;;;;;;;;5041082;28;20076;-66
2023/12/22 11:58:51;;;;;;;5.30;1.25;;;;;;;;;;5038400;28;20041;-66
2023/12/22 12:01:17;;;;;;;1.48;0.70;;;;;;;;;;5038716;28;20059;-66
2023/12/22 12:03:49;;;;;;;6.70;1.48;;;;;;;;;;5039816;28;20051;-65
2023/12/22 12:06:16;;;;;;;1.90;0.73;;;;;;;;;;5036612;28;20048;-66
2023/12/22 12:08:42;;;;;;;3.45;0.90;;;;;;;;;;5039104;28;20040;-66
2023/12/22 12:11:09;;;;;;;3.08;0.65;;;;;;;;;;5038291;28;20083;-66
2023/12/22 12:13:35;;;;;;;2.75;1.15;;;;;;;;;;5040413;28;20424;-66
2023/12/22 12:16:02;;;;;;;4.22;0.93;;;;;;;;;;5038878;28;20147;-66
2023/12/22 12:18:29;;;;;;;1.77;0.80;;;;;;;;;;5040565;28;20408;-66
2023/12/22 12:20:54;;;;;;;1.52;1.00;;;;;;;;;;5034116;28;20036;-66
2023/12/22 12:23:23;;;;;;;4.57;0.82;;;;;;;;;;5041263;28;20045;-66
2023/12/22 12:25:49;;;;;;;4.55;0.73;;;;;;;;;;5036722;28;20049;-66
2023/12/22 12:28:18;;;;;;;3.42;0.65;;;;;;;;;;5032737;28;20103;-66
2023/12/22 12:30:45;;;;;;;3.35;0.70;;;;;;;;;;5065638;28;20049;-66
2023/12/22 12:33:12;;;;;;;3.33;0.82;;;;;;;;;;5032455;28;20126;-66
2023/12/22 12:35:39;;;;;;;3.65;0.90;;;;;;;;;;5034799;28;20055;-66
2023/12/22 12:38:05;;;;;;;0.85;0.60;;;;;;;;;;5035357;28;20033;-66
2023/12/22 12:40:35;;;;;;;2.60;0.63;;;;;;;;;;5036210;28;20045;-66
2023/12/22 12:43:02;;;;;;;2.92;0.70;;;;;;;;;;5041134;28;20111;-66
2023/12/22 12:45:28;;;;;;;3.75;0.98;;;;;;;;;;5040515;28;20047;-66
2023/12/22 12:47:58;;;;;;;2.70;0.70;;;;;;;;;;5040504;28;20045;-66
2023/12/22 12:50:24;;;;;;;3.17;0.80;;;;;;;;;;5033501;28;20394;-66
2023/12/22 12:52:53;;;;;;;6.78;1.23;;;;;;;;;;5039770;28;20107;-66
2023/12/22 12:55:20;;;;;;;5.05;0.80;;;;;;;;;;5041429;28;20504;-66
2023/12/22 12:57:49;;;;;;;1.90;0.90;;;;;;;;;;5043486;28;20076;-66
2023/12/22 13:00:15;;;;;;;3.35;1.02;;;;;;;;;;5038719;28;20049;-66
2023/12/22 13:02:41;;;;;;;3.58;0.80;;;;;;;;;;5032796;28;20037;-66
2023/12/22 13:05:09;;;;;;;9.15;1.52;;;;;;;;;;5036567;28;20041;-65
2023/12/22 13:07:37;;;;;;;5.07;1.52;;;;;;;;;;5035093;28;20040;-66
2023/12/22 13:10:03;;;;;;;3.92;0.88;;;;;;;;;;5041666;28;20045;-66
2023/12/22 13:12:29;;;;;;;3.85;0.73;;;;;;;;;;5055305;28;20048;-66
2023/12/22 13:14:55;;;;;;;3.40;1.05;;;;;;;;;;5046162;28;20076;-66
2023/12/22 13:17:22;;;;;;;2.67;0.82;;;;;;;;;;5048626;28;20068;-66
2023/12/22 13:19:48;;;;;;;5.53;1.10;;;;;;;;;;5039330;28;20116;-66
2023/12/22 13:22:14;;;;;;;4.05;1.27;;;;;;;;;;5048413;28;20053;-66
2023/12/22 13:24:40;;;;;;;5.95;1.30;;;;;;;;;;5049088;28;20048;-66
2023/12/22 13:27:06;;;;;;;3.72;1.20;;;;;;;;;;5049200;28;20044;-66
2023/12/22 13:29:47;;;;;;;2.13;0.60;;;;;;;;;;5047293;28;20040;-66
2023/12/22 13:32:20;;;;;;;3.72;0.68;;;;;;;;;;5040810;28;20067;-66
2023/12/22 13:34:48;;;;;;;3.90;0.75;;;;;;;;;;5047562;28;20079;-66
2023/12/22 13:37:14;;;;;;;5.65;1.17;;;;;;;;;;5046175;28;20076;-66
2023/12/22 13:39:40;;;;;;;3.58;0.80;;;;;;;;;;5022210;28;20124;-66
2023/12/22 13:42:14;;;;;;;1.98;0.73;;;;;;;;;;5048506;28;20044;-66
2023/12/22 13:44:48;;;;;;;2.50;0.63;;;;;;;;;;5047825;28;20774;-67
2023/12/22 13:47:18;;;;;;;2.25;0.35;;;;;;;;;;5045183;28;20485;-67
2023/12/22 13:49:44;;;;;;;1.27;0.50;;;;;;;;;;5048192;28;20088;-67
2023/12/22 13:52:32;;;;;;;1.15;0.40;;;;;;;;;;5047758;28;20484;-65
2023/12/22 13:55:00;;;;;;;2.03;0.50;;;;;;;;;;5048239;28;20045;-65
2023/12/22 13:57:27;;;;;;;4.55;0.73;;;;;;;;;;5047827;28;20055;-66
2023/12/22 13:59:53;;;;;;;0.77;0.32;;;;;;;;;;5048909;28;20069;-66
2023/12/22 14:02:22;;;;;;;1.50;0.43;;;;;;;;;;5046978;28;20120;-66
2023/12/22 14:04:49;;;;;;;1.27;0.60;;;;;;;;;;5046755;28;20559;-66
2023/12/22 14:07:16;;;;;;;1.02;0.50;;;;;;;;;;5048255;28;20048;-66
2023/12/22 14:09:41;;;;;;;1.65;0.50;;;;;;;;;;5048011;28;20129;-66
2023/12/22 14:12:07;;;;;;;3.85;0.68;;;;;;;;;;5047846;28;20128;-66
2023/12/22 14:14:33;;;;;;;2.70;0.88;;;;;;;;;;5046187;28;20036;-66
2023/12/22 14:16:59;;;;;;;5.43;1.52;;;;;;;;;;5043222;28;20045;-67
2023/12/22 14:19:26;;;;;;;4.45;0.68;;;;;;;;;;5047106;28;20045;-67
2023/12/22 14:21:52;;;;;;;6.05;1.30;;;;;;;;;;5048102;28;20041;-67
2023/12/22 14:24:18;;;;;;;2.15;0.88;;;;;;;;;;5046170;28;20037;-67
2023/12/22 14:26:57;;;;;;;3.05;0.98;;;;;;;;;;5045843;28;20088;-67
2023/12/22 14:29:23;;;;;;;1.10;0.52;;;;;;;;;;5048793;28;20041;-67
2023/12/22 14:31:50;;;;;;;1.33;0.52;;;;;;;;;;5046208;28;20373;-67
2023/12/22 14:34:16;;;;;;;2.92;0.57;;;;;;;;;;5047007;28;20581;-67